Hilmoe, South Dakota
Current Conditions -  °F | °C
As of 4:53 AM on Sunday 26 Oct 2014 (Local Time) from KPIR Reporting Station
Clear Clear  
Wind Chill: 50°   Ceiling: Unl
Heat Index: 50°   Visibility: 10mi
Dew Point: 34°   Wind: 13mph
Humidity: 54%   Direction: 120°ESE
Pressure: 29.77"   Gusts: NA
Location:  43.909°N, 100.128°W
Report Text: KPIR 260953Z AUTO 12011KT 10SM CLR 10/01 A2977 RMK AO2 SLP078 T01000011
Loading
Personal Weather Stations






























Interactive Weather Map
Tropical Storm Tracking
New forecast layout! Learn more

10-Day Weather Forecast

Advertisements
Track Severe Weather on mobile